sensor_id;sensor_type;location;lat;lon;timestamp;temperature;humidity
21580;DHT22;10951;59.656;9.666;2023-12-20T00:02:17;-1.40;99.90
21580;DHT22;10951;59.656;9.666;2023-12-20T00:04:44;-1.40;99.90
21580;DHT22;10951;59.656;9.666;2023-12-20T00:07:11;-1.40;99.90
21580;DHT22;10951;59.656;9.666;2023-12-20T00:09:38;-1.50;99.90
21580;DHT22;10951;59.656;9.666;2023-12-20T00:12:06;-1.40;99.90
21580;DHT22;10951;59.656;9.666;2023-12-20T00:14:32;-1.30;99.90
21580;DHT22;10951;59.656;9.666;2023-12-20T00:16:59;-1.30;99.90
21580;DHT22;10951;59.656;9.666;2023-12-20T00:19:26;-1.40;99.90
21580;DHT22;10951;59.656;9.666;2023-12-20T00:21:53;-1.40;99.90
21580;DHT22;10951;59.656;9.666;2023-12-20T00:24:20;-1.30;99.90
21580;DHT22;10951;59.656;9.666;2023-12-20T00:26:47;-1.30;99.90
21580;DHT22;10951;59.656;9.666;2023-12-20T00:29:14;-1.30;99.90
21580;DHT22;10951;59.656;9.666;2023-12-20T00:31:41;-1.40;99.90
21580;DHT22;10951;59.656;9.666;2023-12-20T00:34:08;-1.40;99.90
21580;DHT22;10951;59.656;9.666;2023-12-20T00:36:36;-1.40;99.90
21580;DHT22;10951;59.656;9.666;2023-12-20T00:39:03;-1.40;99.90
21580;DHT22;10951;59.656;9.666;2023-12-20T00:41:31;-1.40;99.90
21580;DHT22;10951;59.656;9.666;2023-12-20T00:43:58;-1.40;99.90
21580;DHT22;10951;59.656;9.666;2023-12-20T00:46:25;-1.30;99.90
21580;DHT22;10951;59.656;9.666;2023-12-20T00:48:52;-1.30;99.90
21580;DHT22;10951;59.656;9.666;2023-12-20T00:51:18;-1.20;99.90
21580;DHT22;10951;59.656;9.666;2023-12-20T00:53:46;-1.20;99.90
21580;DHT22;10951;59.656;9.666;2023-12-20T00:56:16;-1.20;99.90
21580;DHT22;10951;59.656;9.666;2023-12-20T00:58:43;-1.20;99.90
21580;DHT22;10951;59.656;9.666;2023-12-20T01:01:10;-1.20;99.90
21580;DHT22;10951;59.656;9.666;2023-12-20T01:03:37;-1.30;99.90
21580;DHT22;10951;59.656;9.666;2023-12-20T01:06:05;-1.40;99.90
21580;DHT22;10951;59.656;9.666;2023-12-20T01:08:32;-1.40;99.90
21580;DHT22;10951;59.656;9.666;2023-12-20T01:11:04;-1.40;99.90
21580;DHT22;10951;59.656;9.666;2023-12-20T01:13:31;-1.30;99.90
21580;DHT22;10951;59.656;9.666;2023-12-20T01:15:58;-1.20;99.90
21580;DHT22;10951;59.656;9.666;2023-12-20T01:18:26;-1.20;99.90
21580;DHT22;10951;59.656;9.666;2023-12-20T01:20:53;-1.30;99.90
21580;DHT22;10951;59.656;9.666;2023-12-20T01:23:19;-1.40;99.90
21580;DHT22;10951;59.656;9.666;2023-12-20T01:25:46;-1.40;99.90
21580;DHT22;10951;59.656;9.666;2023-12-20T01:28:13;-1.30;99.90
21580;DHT22;10951;59.656;9.666;2023-12-20T01:30:40;-1.30;99.90
21580;DHT22;10951;59.656;9.666;2023-12-20T01:33:07;-1.20;99.90
21580;DHT22;10951;59.656;9.666;2023-12-20T01:35:34;-1.10;99.90
21580;DHT22;10951;59.656;9.666;2023-12-20T01:38:01;-1.00;99.90
21580;DHT22;10951;59.656;9.666;2023-12-20T01:40:28;-0.90;99.90
21580;DHT22;10951;59.656;9.666;2023-12-20T01:43:08;-0.90;99.90
21580;DHT22;10951;59.656;9.666;2023-12-20T01:45:35;-1.00;99.90
21580;DHT22;10951;59.656;9.666;2023-12-20T01:48:04;-1.00;99.90
21580;DHT22;10951;59.656;9.666;2023-12-20T01:50:32;-1.10;99.90
21580;DHT22;10951;59.656;9.666;2023-12-20T01:53:01;-1.10;99.90
21580;DHT22;10951;59.656;9.666;2023-12-20T01:55:31;-1.10;99.90
21580;DHT22;10951;59.656;9.666;2023-12-20T01:57:59;-1.10;99.90
21580;DHT22;10951;59.656;9.666;2023-12-20T02:00:30;-1.10;99.90
21580;DHT22;10951;59.656;9.666;2023-12-20T02:03:01;-1.00;99.90
21580;DHT22;10951;59.656;9.666;2023-12-20T02:05:32;-1.00;99.90
21580;DHT22;10951;59.656;9.666;2023-12-20T02:08:00;-1.10;99.90
21580;DHT22;10951;59.656;9.666;2023-12-20T02:10:27;-1.10;99.90
21580;DHT22;10951;59.656;9.666;2023-12-20T02:12:54;-1.10;99.90
21580;DHT22;10951;59.656;9.666;2023-12-20T02:15:21;-1.10;99.90
21580;DHT22;10951;59.656;9.666;2023-12-20T02:17:49;-1.00;99.90
21580;DHT22;10951;59.656;9.666;2023-12-20T02:20:16;-1.00;99.90
21580;DHT22;10951;59.656;9.666;2023-12-20T02:22:43;-1.10;99.90
21580;DHT22;10951;59.656;9.666;2023-12-20T02:25:10;-1.20;99.90
21580;DHT22;10951;59.656;9.666;2023-12-20T02:27:38;-1.10;99.90
21580;DHT22;10951;59.656;9.666;2023-12-20T02:30:06;-1.10;99.90
21580;DHT22;10951;59.656;9.666;2023-12-20T02:36:41;-1.20;99.90
21580;DHT22;10951;59.656;9.666;2023-12-20T02:39:08;-1.20;99.90
21580;DHT22;10951;59.656;9.666;2023-12-20T02:41:35;-1.20;99.90
21580;DHT22;10951;59.656;9.666;2023-12-20T02:44:03;-1.10;99.90
21580;DHT22;10951;59.656;9.666;2023-12-20T02:46:29;-1.10;99.90
21580;DHT22;10951;59.656;9.666;2023-12-20T02:48:56;-1.10;99.90
21580;DHT22;10951;59.656;9.666;2023-12-20T02:51:24;-1.10;99.90
21580;DHT22;10951;59.656;9.666;2023-12-20T02:53:51;-1.00;99.90
21580;DHT22;10951;59.656;9.666;2023-12-20T02:56:18;-1.00;99.90
21580;DHT22;10951;59.656;9.666;2023-12-20T02:58:45;-0.90;99.90
21580;DHT22;10951;59.656;9.666;2023-12-20T03:01:11;-0.90;99.90
21580;DHT22;10951;59.656;9.666;2023-12-20T03:03:39;-0.80;99.90
21580;DHT22;10951;59.656;9.666;2023-12-20T03:06:06;-0.90;99.90
21580;DHT22;10951;59.656;9.666;2023-12-20T03:08:33;-0.90;99.90
21580;DHT22;10951;59.656;9.666;2023-12-20T03:11:00;-0.90;99.90
21580;DHT22;10951;59.656;9.666;2023-12-20T03:13:27;-0.90;99.90
21580;DHT22;10951;59.656;9.666;2023-12-20T03:15:54;-1.00;99.90
21580;DHT22;10951;59.656;9.666;2023-12-20T03:18:21;-0.90;99.90
21580;DHT22;10951;59.656;9.666;2023-12-20T03:20:48;-0.90;99.90
21580;DHT22;10951;59.656;9.666;2023-12-20T03:23:17;-0.80;99.90
21580;DHT22;10951;59.656;9.666;2023-12-20T03:25:44;-0.70;99.90
21580;DHT22;10951;59.656;9.666;2023-12-20T03:28:14;-0.70;99.90
21580;DHT22;10951;59.656;9.666;2023-12-20T03:30:42;-0.80;99.90
21580;DHT22;10951;59.656;9.666;2023-12-20T03:33:10;-0.90;99.90
21580;DHT22;10951;59.656;9.666;2023-12-20T03:35:37;-0.90;99.90
21580;DHT22;10951;59.656;9.666;2023-12-20T03:38:04;-1.00;99.90
21580;DHT22;10951;59.656;9.666;2023-12-20T03:40:31;-1.00;99.90
21580;DHT22;10951;59.656;9.666;2023-12-20T03:42:58;-1.10;99.90
21580;DHT22;10951;59.656;9.666;2023-12-20T03:45:26;-1.10;99.90
21580;DHT22;10951;59.656;9.666;2023-12-20T03:47:53;-1.10;99.90
21580;DHT22;10951;59.656;9.666;2023-12-20T03:50:28;-1.00;99.90
21580;DHT22;10951;59.656;9.666;2023-12-20T03:52:55;-0.90;99.90
21580;DHT22;10951;59.656;9.666;2023-12-20T03:55:22;-1.00;99.90
21580;DHT22;10951;59.656;9.666;2023-12-20T03:57:50;-1.00;99.90
21580;DHT22;10951;59.656;9.666;2023-12-20T04:00:17;-1.00;99.90
21580;DHT22;10951;59.656;9.666;2023-12-20T04:02:44;-1.10;99.90
21580;DHT22;10951;59.656;9.666;2023-12-20T04:05:11;-1.00;99.90
21580;DHT22;10951;59.656;9.666;2023-12-20T04:07:39;-1.00;99.90
21580;DHT22;10951;59.656;9.666;2023-12-20T04:10:07;-1.00;99.90
21580;DHT22;10951;59.656;9.666;2023-12-20T04:12:35;-1.10;99.90
21580;DHT22;10951;59.656;9.666;2023-12-20T04:15:02;-1.10;99.90
21580;DHT22;10951;59.656;9.666;2023-12-20T04:17:36;-1.10;99.90
21580;DHT22;10951;59.656;9.666;2023-12-20T04:20:04;-1.10;99.90
21580;DHT22;10951;59.656;9.666;2023-12-20T04:22:31;-0.90;99.90
21580;DHT22;10951;59.656;9.666;2023-12-20T04:24:58;-0.80;99.90
21580;DHT22;10951;59.656;9.666;2023-12-20T04:27:25;-0.80;99.90
21580;DHT22;10951;59.656;9.666;2023-12-20T04:29:52;-0.80;99.90
21580;DHT22;10951;59.656;9.666;2023-12-20T04:32:19;-0.80;99.90
21580;DHT22;10951;59.656;9.666;2023-12-20T04:34:46;-0.70;99.90
21580;DHT22;10951;59.656;9.666;2023-12-20T04:37:13;-0.60;99.90
21580;DHT22;10951;59.656;9.666;2023-12-20T04:39:41;-0.70;99.90
21580;DHT22;10951;59.656;9.666;2023-12-20T04:42:08;-0.80;99.90
21580;DHT22;10951;59.656;9.666;2023-12-20T04:44:35;-0.80;99.90
21580;DHT22;10951;59.656;9.666;2023-12-20T04:47:02;-0.80;99.90
21580;DHT22;10951;59.656;9.666;2023-12-20T04:49:29;-0.80;99.90
21580;DHT22;10951;59.656;9.666;2023-12-20T04:51:57;-0.80;99.90
21580;DHT22;10951;59.656;9.666;2023-12-20T04:54:24;-0.80;99.90
21580;DHT22;10951;59.656;9.666;2023-12-20T04:56:51;-0.80;99.90
21580;DHT22;10951;59.656;9.666;2023-12-20T04:59:18;-0.80;99.90
21580;DHT22;10951;59.656;9.666;2023-12-20T05:01:45;-0.80;99.90
21580;DHT22;10951;59.656;9.666;2023-12-20T05:04:12;-0.80;99.90
21580;DHT22;10951;59.656;9.666;2023-12-20T05:06:40;-0.80;99.90
21580;DHT22;10951;59.656;9.666;2023-12-20T05:09:07;-0.80;99.90
21580;DHT22;10951;59.656;9.666;2023-12-20T05:11:34;-0.80;99.90
21580;DHT22;10951;59.656;9.666;2023-12-20T05:14:02;-0.70;99.90
21580;DHT22;10951;59.656;9.666;2023-12-20T05:16:29;-0.60;99.90
21580;DHT22;10951;59.656;9.666;2023-12-20T05:18:56;-0.60;99.90
21580;DHT22;10951;59.656;9.666;2023-12-20T05:21:23;-0.60;99.90
21580;DHT22;10951;59.656;9.666;2023-12-20T05:23:50;-0.60;99.90
21580;DHT22;10951;59.656;9.666;2023-12-20T05:26:17;-0.50;99.90
21580;DHT22;10951;59.656;9.666;2023-12-20T05:28:44;-0.40;99.90
21580;DHT22;10951;59.656;9.666;2023-12-20T05:31:12;-0.40;99.90
21580;DHT22;10951;59.656;9.666;2023-12-20T05:33:39;-0.40;99.90
21580;DHT22;10951;59.656;9.666;2023-12-20T05:36:06;-0.40;99.90
21580;DHT22;10951;59.656;9.666;2023-12-20T05:38:38;-0.40;99.90
21580;DHT22;10951;59.656;9.666;2023-12-20T05:41:05;-0.40;99.90
21580;DHT22;10951;59.656;9.666;2023-12-20T05:43:32;-0.30;99.90
21580;DHT22;10951;59.656;9.666;2023-12-20T05:45:59;-0.30;99.90
21580;DHT22;10951;59.656;9.666;2023-12-20T05:48:27;-0.30;99.90
21580;DHT22;10951;59.656;9.666;2023-12-20T05:50:54;-0.30;99.90
21580;DHT22;10951;59.656;9.666;2023-12-20T05:53:21;-0.40;99.90
21580;DHT22;10951;59.656;9.666;2023-12-20T05:55:48;-0.50;99.90
21580;DHT22;10951;59.656;9.666;2023-12-20T05:58:15;-0.50;99.90
21580;DHT22;10951;59.656;9.666;2023-12-20T06:00:43;-0.60;99.90
21580;DHT22;10951;59.656;9.666;2023-12-20T06:03:10;-0.60;99.90
21580;DHT22;10951;59.656;9.666;2023-12-20T06:05:37;-0.60;99.90
21580;DHT22;10951;59.656;9.666;2023-12-20T06:08:05;-0.60;99.90
21580;DHT22;10951;59.656;9.666;2023-12-20T06:10:32;-0.70;99.90
21580;DHT22;10951;59.656;9.666;2023-12-20T06:12:59;-0.60;99.90
21580;DHT22;10951;59.656;9.666;2023-12-20T06:15:27;-0.70;99.90
21580;DHT22;10951;59.656;9.666;2023-12-20T06:17:54;-0.70;99.90
21580;DHT22;10951;59.656;9.666;2023-12-20T06:20:22;-0.80;99.90
21580;DHT22;10951;59.656;9.666;2023-12-20T06:22:51;-0.80;99.90
21580;DHT22;10951;59.656;9.666;2023-12-20T06:25:19;-0.70;99.90
21580;DHT22;10951;59.656;9.666;2023-12-20T06:27:46;-0.60;99.90
21580;DHT22;10951;59.656;9.666;2023-12-20T06:30:15;-0.50;99.90
21580;DHT22;10951;59.656;9.666;2023-12-20T06:32:42;-0.50;99.90
21580;DHT22;10951;59.656;9.666;2023-12-20T06:35:09;-0.60;99.90
21580;DHT22;10951;59.656;9.666;2023-12-20T06:37:37;-0.60;99.90
21580;DHT22;10951;59.656;9.666;2023-12-20T06:40:04;-0.60;99.90
21580;DHT22;10951;59.656;9.666;2023-12-20T06:42:32;-0.60;99.90
21580;DHT22;10951;59.656;9.666;2023-12-20T06:45:09;-0.60;99.90
21580;DHT22;10951;59.656;9.666;2023-12-20T06:47:36;-0.60;99.90
21580;DHT22;10951;59.656;9.666;2023-12-20T06:50:04;-0.60;99.90
21580;DHT22;10951;59.656;9.666;2023-12-20T06:52:32;-0.60;99.90
21580;DHT22;10951;59.656;9.666;2023-12-20T06:54:59;-0.70;99.90
21580;DHT22;10951;59.656;9.666;2023-12-20T06:57:26;-0.70;99.90
21580;DHT22;10951;59.656;9.666;2023-12-20T06:59:53;-0.70;99.90
21580;DHT22;10951;59.656;9.666;2023-12-20T07:02:20;-0.70;99.90
21580;DHT22;10951;59.656;9.666;2023-12-20T07:04:49;-0.70;99.90
21580;DHT22;10951;59.656;9.666;2023-12-20T07:07:16;-0.70;99.90
21580;DHT22;10951;59.656;9.666;2023-12-20T07:09:43;-0.70;99.90
21580;DHT22;10951;59.656;9.666;2023-12-20T07:12:11;-0.70;99.90
21580;DHT22;10951;59.656;9.666;2023-12-20T07:14:38;-0.70;99.90
21580;DHT22;10951;59.656;9.666;2023-12-20T07:17:05;-0.70;99.90
21580;DHT22;10951;59.656;9.666;2023-12-20T07:19:38;-0.70;99.90
21580;DHT22;10951;59.656;9.666;2023-12-20T07:22:08;-0.60;99.90
21580;DHT22;10951;59.656;9.666;2023-12-20T07:24:36;-0.60;99.90
21580;DHT22;10951;59.656;9.666;2023-12-20T07:27:03;-0.50;99.90
21580;DHT22;10951;59.656;9.666;2023-12-20T07:29:30;-0.50;99.90
21580;DHT22;10951;59.656;9.666;2023-12-20T07:31:57;-0.40;99.90
21580;DHT22;10951;59.656;9.666;2023-12-20T07:34:25;-0.40;99.90
21580;DHT22;10951;59.656;9.666;2023-12-20T07:36:52;-0.50;99.90
21580;DHT22;10951;59.656;9.666;2023-12-20T07:39:19;-0.50;99.90
21580;DHT22;10951;59.656;9.666;2023-12-20T07:41:46;-0.40;99.90
21580;DHT22;10951;59.656;9.666;2023-12-20T07:44:14;-0.40;99.90
21580;DHT22;10951;59.656;9.666;2023-12-20T07:46:42;-0.40;99.90
21580;DHT22;10951;59.656;9.666;2023-12-20T07:49:09;-0.20;99.90
21580;DHT22;10951;59.656;9.666;2023-12-20T07:51:38;-0.10;99.90
21580;DHT22;10951;59.656;9.666;2023-12-20T07:54:05;0.00;99.90
21580;DHT22;10951;59.656;9.666;2023-12-20T07:56:34;0.00;99.90
21580;DHT22;10951;59.656;9.666;2023-12-20T07:59:01;0.00;99.90
21580;DHT22;10951;59.656;9.666;2023-12-20T08:01:29;0.00;99.90
21580;DHT22;10951;59.656;9.666;2023-12-20T08:03:56;0.00;99.90
21580;DHT22;10951;59.656;9.666;2023-12-20T08:06:24;0.00;99.90
21580;DHT22;10951;59.656;9.666;2023-12-20T08:08:51;0.00;99.90
21580;DHT22;10951;59.656;9.666;2023-12-20T08:11:30;0.00;99.90
21580;DHT22;10951;59.656;9.666;2023-12-20T08:13:57;-0.10;99.90
21580;DHT22;10951;59.656;9.666;2023-12-20T08:16:24;-0.10;99.90
21580;DHT22;10951;59.656;9.666;2023-12-20T08:18:51;-0.10;99.90
21580;DHT22;10951;59.656;9.666;2023-12-20T08:21:19;-0.10;99.90
21580;DHT22;10951;59.656;9.666;2023-12-20T08:23:48;-0.10;99.90
21580;DHT22;10951;59.656;9.666;2023-12-20T08:26:19;-0.20;99.90
21580;DHT22;10951;59.656;9.666;2023-12-20T08:28:47;-0.10;99.90
21580;DHT22;10951;59.656;9.666;2023-12-20T08:31:15;-0.10;99.90
21580;DHT22;10951;59.656;9.666;2023-12-20T08:33:48;-0.10;99.90
21580;DHT22;10951;59.656;9.666;2023-12-20T08:36:15;0.00;99.90
21580;DHT22;10951;59.656;9.666;2023-12-20T08:38:44;-0.10;99.90
21580;DHT22;10951;59.656;9.666;2023-12-20T08:41:13;-0.10;99.90
21580;DHT22;10951;59.656;9.666;2023-12-20T08:43:40;-0.20;99.90
21580;DHT22;10951;59.656;9.666;2023-12-20T08:46:08;-0.20;99.90
21580;DHT22;10951;59.656;9.666;2023-12-20T08:48:36;-0.10;99.90
21580;DHT22;10951;59.656;9.666;2023-12-20T08:51:04;-0.10;99.90
21580;DHT22;10951;59.656;9.666;2023-12-20T08:53:34;-0.10;99.90
21580;DHT22;10951;59.656;9.666;2023-12-20T08:56:01;-0.10;99.90
21580;DHT22;10951;59.656;9.666;2023-12-20T08:58:28;0.00;99.90
21580;DHT22;10951;59.656;9.666;2023-12-20T09:00:56;0.00;99.90
21580;DHT22;10951;59.656;9.666;2023-12-20T09:03:24;0.10;99.90
21580;DHT22;10951;59.656;9.666;2023-12-20T09:05:52;0.10;99.90
21580;DHT22;10951;59.656;9.666;2023-12-20T09:08:19;0.10;99.90
21580;DHT22;10951;59.656;9.666;2023-12-20T09:10:46;0.10;99.90
21580;DHT22;10951;59.656;9.666;2023-12-20T09:13:13;0.10;99.90
21580;DHT22;10951;59.656;9.666;2023-12-20T09:15:40;0.20;99.90
21580;DHT22;10951;59.656;9.666;2023-12-20T09:18:07;0.20;99.90
21580;DHT22;10951;59.656;9.666;2023-12-20T09:20:35;0.20;99.90
21580;DHT22;10951;59.656;9.666;2023-12-20T09:23:04;0.30;99.90
21580;DHT22;10951;59.656;9.666;2023-12-20T09:25:31;0.50;99.90
21580;DHT22;10951;59.656;9.666;2023-12-20T09:27:58;0.50;99.90
21580;DHT22;10951;59.656;9.666;2023-12-20T09:30:25;0.50;99.90
21580;DHT22;10951;59.656;9.666;2023-12-20T09:32:54;0.60;99.90
21580;DHT22;10951;59.656;9.666;2023-12-20T09:35:22;0.60;99.90
21580;DHT22;10951;59.656;9.666;2023-12-20T09:37:50;0.70;99.80
21580;DHT22;10951;59.656;9.666;2023-12-20T09:40:19;0.70;99.50
21580;DHT22;10951;59.656;9.666;2023-12-20T09:42:57;0.70;99.10
21580;DHT22;10951;59.656;9.666;2023-12-20T09:45:25;0.70;98.50
21580;DHT22;10951;59.656;9.666;2023-12-20T09:47:53;0.60;98.50
21580;DHT22;10951;59.656;9.666;2023-12-20T09:50:22;0.60;98.60
21580;DHT22;10951;59.656;9.666;2023-12-20T09:52:51;0.60;98.50
21580;DHT22;10951;59.656;9.666;2023-12-20T09:55:19;0.60;98.50
21580;DHT22;10951;59.656;9.666;2023-12-20T09:57:48;0.60;98.00
21580;DHT22;10951;59.656;9.666;2023-12-20T10:00:16;0.60;98.00
21580;DHT22;10951;59.656;9.666;2023-12-20T10:02:57;0.60;98.00
21580;DHT22;10951;59.656;9.666;2023-12-20T10:05:33;0.70;97.90
21580;DHT22;10951;59.656;9.666;2023-12-20T10:08:01;0.80;96.90
21580;DHT22;10951;59.656;9.666;2023-12-20T10:10:30;0.90;96.20
21580;DHT22;10951;59.656;9.666;2023-12-20T10:13:12;1.00;95.80
21580;DHT22;10951;59.656;9.666;2023-12-20T10:15:40;1.10;95.70
21580;DHT22;10951;59.656;9.666;2023-12-20T10:18:09;1.10;96.30
21580;DHT22;10951;59.656;9.666;2023-12-20T10:20:38;1.20;96.00
21580;DHT22;10951;59.656;9.666;2023-12-20T10:23:07;1.30;95.60
21580;DHT22;10951;59.656;9.666;2023-12-20T10:25:34;1.30;95.90
21580;DHT22;10951;59.656;9.666;2023-12-20T10:28:12;1.40;94.80
21580;DHT22;10951;59.656;9.666;2023-12-20T10:30:41;1.50;94.60
21580;DHT22;10951;59.656;9.666;2023-12-20T10:33:10;1.50;94.00
21580;DHT22;10951;59.656;9.666;2023-12-20T10:35:39;1.60;94.40
21580;DHT22;10951;59.656;9.666;2023-12-20T10:38:11;1.60;94.20
21580;DHT22;10951;59.656;9.666;2023-12-20T10:40:40;1.70;93.70
21580;DHT22;10951;59.656;9.666;2023-12-20T10:43:09;1.70;93.20
21580;DHT22;10951;59.656;9.666;2023-12-20T10:45:36;1.60;93.70
21580;DHT22;10951;59.656;9.666;2023-12-20T10:48:04;1.60;93.00
21580;DHT22;10951;59.656;9.666;2023-12-20T10:50:31;1.60;93.10
21580;DHT22;10951;59.656;9.666;2023-12-20T10:52:59;1.60;93.10
21580;DHT22;10951;59.656;9.666;2023-12-20T10:55:27;1.60;93.00
21580;DHT22;10951;59.656;9.666;2023-12-20T10:58:08;1.60;92.70
21580;DHT22;10951;59.656;9.666;2023-12-20T11:00:39;1.70;93.20
21580;DHT22;10951;59.656;9.666;2023-12-20T11:03:11;1.60;93.50
21580;DHT22;10951;59.656;9.666;2023-12-20T11:05:54;1.60;93.10
21580;DHT22;10951;59.656;9.666;2023-12-20T11:08:37;1.60;93.20
21580;DHT22;10951;59.656;9.666;2023-12-20T11:11:32;1.60;92.90
21580;DHT22;10951;59.656;9.666;2023-12-20T11:14:05;1.60;92.80
21580;DHT22;10951;59.656;9.666;2023-12-20T11:16:33;1.60;92.70
21580;DHT22;10951;59.656;9.666;2023-12-20T11:19:17;1.60;93.10
21580;DHT22;10951;59.656;9.666;2023-12-20T11:21:46;1.50;92.80
21580;DHT22;10951;59.656;9.666;2023-12-20T11:24:15;1.50;92.30
21580;DHT22;10951;59.656;9.666;2023-12-20T11:26:47;1.60;92.10
21580;DHT22;10951;59.656;9.666;2023-12-20T11:29:37;1.60;92.20
21580;DHT22;10951;59.656;9.666;2023-12-20T11:37:39;1.70;91.50
21580;DHT22;10951;59.656;9.666;2023-12-20T11:40:18;1.80;91.50
21580;DHT22;10951;59.656;9.666;2023-12-20T11:42:49;1.90;91.60
21580;DHT22;10951;59.656;9.666;2023-12-20T11:45:19;1.90;90.20
21580;DHT22;10951;59.656;9.666;2023-12-20T11:47:50;2.00;88.80
21580;DHT22;10951;59.656;9.666;2023-12-20T11:50:18;2.10;89.00
21580;DHT22;10951;59.656;9.666;2023-12-20T11:52:49;2.20;90.30
21580;DHT22;10951;59.656;9.666;2023-12-20T11:55:16;2.30;90.50
21580;DHT22;10951;59.656;9.666;2023-12-20T11:57:44;2.30;90.30
21580;DHT22;10951;59.656;9.666;2023-12-20T12:00:15;2.40;88.30
21580;DHT22;10951;59.656;9.666;2023-12-20T12:02:42;2.40;89.10
21580;DHT22;10951;59.656;9.666;2023-12-20T12:05:14;2.40;85.00
21580;DHT22;10951;59.656;9.666;2023-12-20T12:07:41;2.50;85.60
21580;DHT22;10951;59.656;9.666;2023-12-20T12:10:08;2.40;87.20
21580;DHT22;10951;59.656;9.666;2023-12-20T12:12:36;2.50;88.00
21580;DHT22;10951;59.656;9.666;2023-12-20T12:15:03;2.50;86.10
21580;DHT22;10951;59.656;9.666;2023-12-20T12:17:31;2.40;84.70
21580;DHT22;10951;59.656;9.666;2023-12-20T12:20:06;2.40;85.00
21580;DHT22;10951;59.656;9.666;2023-12-20T12:22:37;2.40;85.80
21580;DHT22;10951;59.656;9.666;2023-12-20T12:25:11;2.40;82.30
21580;DHT22;10951;59.656;9.666;2023-12-20T12:27:42;2.50;83.10
21580;DHT22;10951;59.656;9.666;2023-12-20T12:30:10;2.50;82.90
21580;DHT22;10951;59.656;9.666;2023-12-20T12:32:40;2.50;80.40
21580;DHT22;10951;59.656;9.666;2023-12-20T12:35:08;2.50;80.70
21580;DHT22;10951;59.656;9.666;2023-12-20T12:37:41;2.60;79.20
21580;DHT22;10951;59.656;9.666;2023-12-20T12:40:15;2.60;81.80
21580;DHT22;10951;59.656;9.666;2023-12-20T12:42:44;2.50;81.20
21580;DHT22;10951;59.656;9.666;2023-12-20T12:45:11;2.50;81.30
21580;DHT22;10951;59.656;9.666;2023-12-20T12:47:39;2.40;81.20
21580;DHT22;10951;59.656;9.666;2023-12-20T12:50:07;2.30;79.50
21580;DHT22;10951;59.656;9.666;2023-12-20T12:52:35;2.40;79.20
21580;DHT22;10951;59.656;9.666;2023-12-20T12:55:02;2.30;80.40
21580;DHT22;10951;59.656;9.666;2023-12-20T12:57:33;2.30;79.30
21580;DHT22;10951;59.656;9.666;2023-12-20T13:00:01;2.30;78.20
21580;DHT22;10951;59.656;9.666;2023-12-20T13:02:29;2.30;79.30
21580;DHT22;10951;59.656;9.666;2023-12-20T13:04:57;2.30;79.30
21580;DHT22;10951;59.656;9.666;2023-12-20T13:07:26;2.30;76.00
21580;DHT22;10951;59.656;9.666;2023-12-20T13:09:53;2.30;73.50
21580;DHT22;10951;59.656;9.666;2023-12-20T13:12:21;2.50;73.20
21580;DHT22;10951;59.656;9.666;2023-12-20T13:14:48;2.80;74.00
21580;DHT22;10951;59.656;9.666;2023-12-20T13:17:15;2.80;72.80
21580;DHT22;10951;59.656;9.666;2023-12-20T13:19:43;2.80;72.10
21580;DHT22;10951;59.656;9.666;2023-12-20T13:22:10;2.80;72.80
21580;DHT22;10951;59.656;9.666;2023-12-20T13:24:37;2.70;71.00
21580;DHT22;10951;59.656;9.666;2023-12-20T13:27:05;2.60;70.50
21580;DHT22;10951;59.656;9.666;2023-12-20T13:29:32;2.60;70.30
21580;DHT22;10951;59.656;9.666;2023-12-20T13:32:01;2.50;69.40
21580;DHT22;10951;59.656;9.666;2023-12-20T13:34:32;2.50;69.00
21580;DHT22;10951;59.656;9.666;2023-12-20T13:37:00;2.50;72.40
21580;DHT22;10951;59.656;9.666;2023-12-20T13:39:27;2.40;73.50
21580;DHT22;10951;59.656;9.666;2023-12-20T13:41:54;2.30;75.30
21580;DHT22;10951;59.656;9.666;2023-12-20T13:44:25;2.20;76.30
21580;DHT22;10951;59.656;9.666;2023-12-20T13:46:52;2.00;77.10
21580;DHT22;10951;59.656;9.666;2023-12-20T13:49:19;1.90;78.00
21580;DHT22;10951;59.656;9.666;2023-12-20T13:51:47;1.70;76.20
21580;DHT22;10951;59.656;9.666;2023-12-20T13:54:14;1.70;75.10
21580;DHT22;10951;59.656;9.666;2023-12-20T13:56:43;1.70;74.30
21580;DHT22;10951;59.656;9.666;2023-12-20T13:59:30;1.60;75.90
21580;DHT22;10951;59.656;9.666;2023-12-20T14:01:57;1.40;75.40
21580;DHT22;10951;59.656;9.666;2023-12-20T14:04:24;1.30;74.80
21580;DHT22;10951;59.656;9.666;2023-12-20T14:07:10;1.30;74.60
21580;DHT22;10951;59.656;9.666;2023-12-20T14:09:39;1.30;74.40
21580;DHT22;10951;59.656;9.666;2023-12-20T14:12:13;1.20;74.30
21580;DHT22;10951;59.656;9.666;2023-12-20T14:14:40;1.20;75.20
21580;DHT22;10951;59.656;9.666;2023-12-20T14:17:07;1.10;76.50
21580;DHT22;10951;59.656;9.666;2023-12-20T14:19:34;1.00;77.40
21580;DHT22;10951;59.656;9.666;2023-12-20T14:22:02;0.90;76.60
21580;DHT22;10951;59.656;9.666;2023-12-20T14:24:31;0.80;76.80
21580;DHT22;10951;59.656;9.666;2023-12-20T14:26:58;0.70;77.20
21580;DHT22;10951;59.656;9.666;2023-12-20T14:29:25;0.60;76.80
21580;DHT22;10951;59.656;9.666;2023-12-20T14:31:54;0.50;77.20
21580;DHT22;10951;59.656;9.666;2023-12-20T14:34:21;0.40;79.00
21580;DHT22;10951;59.656;9.666;2023-12-20T14:36:52;0.40;81.40
21580;DHT22;10951;59.656;9.666;2023-12-20T14:39:19;0.30;81.60
21580;DHT22;10951;59.656;9.666;2023-12-20T14:41:47;0.30;79.70
21580;DHT22;10951;59.656;9.666;2023-12-20T14:44:14;0.20;79.60
21580;DHT22;10951;59.656;9.666;2023-12-20T14:46:41;0.10;80.00
21580;DHT22;10951;59.656;9.666;2023-12-20T14:49:08;-0.10;81.10
21580;DHT22;10951;59.656;9.666;2023-12-20T14:51:36;-0.20;81.20
21580;DHT22;10951;59.656;9.666;2023-12-20T14:54:05;-0.20;81.00
21580;DHT22;10951;59.656;9.666;2023-12-20T14:56:36;-0.20;81.30
21580;DHT22;10951;59.656;9.666;2023-12-20T14:59:03;-0.30;81.10
21580;DHT22;10951;59.656;9.666;2023-12-20T15:01:31;-0.40;83.70
21580;DHT22;10951;59.656;9.666;2023-12-20T15:03:58;-0.50;82.70
21580;DHT22;10951;59.656;9.666;2023-12-20T15:06:25;-0.60;83.30
21580;DHT22;10951;59.656;9.666;2023-12-20T15:08:53;-0.70;84.40
21580;DHT22;10951;59.656;9.666;2023-12-20T15:11:20;-0.80;84.20
21580;DHT22;10951;59.656;9.666;2023-12-20T15:13:47;-0.80;83.30
21580;DHT22;10951;59.656;9.666;2023-12-20T15:16:22;-0.80;84.20
21580;DHT22;10951;59.656;9.666;2023-12-20T15:18:50;-0.90;84.70
21580;DHT22;10951;59.656;9.666;2023-12-20T15:21:17;-0.90;84.20
21580;DHT22;10951;59.656;9.666;2023-12-20T15:23:45;-1.10;85.10
21580;DHT22;10951;59.656;9.666;2023-12-20T15:26:22;-1.10;86.80
21580;DHT22;10951;59.656;9.666;2023-12-20T15:28:50;-1.20;85.00
21580;DHT22;10951;59.656;9.666;2023-12-20T15:31:18;-1.30;85.40
21580;DHT22;10951;59.656;9.666;2023-12-20T15:33:46;-1.40;85.50
21580;DHT22;10951;59.656;9.666;2023-12-20T15:36:13;-1.40;85.70
21580;DHT22;10951;59.656;9.666;2023-12-20T15:38:40;-1.50;86.10
21580;DHT22;10951;59.656;9.666;2023-12-20T15:41:08;-1.70;87.50
21580;DHT22;10951;59.656;9.666;2023-12-20T15:43:35;-1.70;88.40
21580;DHT22;10951;59.656;9.666;2023-12-20T15:46:03;-1.80;88.40
21580;DHT22;10951;59.656;9.666;2023-12-20T15:48:32;-1.70;89.00
21580;DHT22;10951;59.656;9.666;2023-12-20T15:51:07;-1.60;89.80
21580;DHT22;10951;59.656;9.666;2023-12-20T15:53:35;-1.70;90.00
21580;DHT22;10951;59.656;9.666;2023-12-20T15:56:02;-1.70;90.00